Airfield :
LOGIN :

Register | Disclaimer

   EN    FR    IT 

 










Legend :    VFR   Marginal VFR   IFR   Intensive IFR   Very Intensive IFR
Visi :
Ceiling :
>= 8 km
>= 3000ft
5 to 8 km
1000 to 3000 ft
1500m to 5 km
500 to 1000 ft
800 to 1500m
200 to 500 ft
< 800m
< 200 ft
Symbols :   Thunderstorms  Fog  Heavy snow  Heavy precipitations  Wind > 20 kt
SIGMETs :     Misc.  Thunderstorms  Icing  Turbulence  Mountain Waves  Volcanic Ashes






- Airport Elevation : 112 ft
- IATA code : SVQ


LEZL - Sevilla San Pablo

CURRENT METAR :
  • 280900Z 23001KT CAVOK 13/07 Q1025 NOSIG

EXPIRED METARs :
  • 280830Z 14002KT CAVOK 11/08 Q1025 NOSIG
  • 280800Z 31005KT CAVOK 11/06 Q1025 NOSIG
  • 280730Z 31007KT 290V350 CAVOK 11/06 Q1025 NOSIG
  • 280700Z 32005KT CAVOK 11/07 Q1024 NOSIG
  • 280630Z 32006KT CAVOK 11/07 Q1024 NOSIG

TAF TAF LEZL
Valid from the 28 at 09:00 until the 29 at 09:00 UTC


280800Z 2809/2909 VRB03KT CAVOK TX20/2815Z TN09/2907Z
BECMG 2809/2811 36010KT
BECMG 2821/2823 VRB03KT



MET'MAP, your aeronautical weather chart ! - Copyright ORBIFLY December 2007 - Disclaimer

ORBIFLY MET'MAP TEAM :

Programming & Development : Alexandra Zaïnal
Original concept : Baudouin d'Aumeries
Technical & hardware support : Manuel Goepfert
Assistance : Marc-Olivier Méhu




SOURCES & CREDITS :

   NOAA